Airport details for: EKCH (Denmark)

Metar

EKCH 152048Z 25007KT 9999 FEW009 SCT064 02/02 Q0996 NOSIG

General details

ICAO: EKCH
IATA: CPH
Name (city): Kastrup
Major:
Country: Denmark
vACC: VATSIM Scandinavia
Description:

Copenhagen Airport is the main international airport of Denmark with 2 main runways and 1 crosswind runway. It is the largest airport in the Nordic countries with around 24 mio passengers per year and also one of the oldest in Europe. The aircraft movement is close to 245.000 per year. 

It is the main hub for Scandinavian Airlines, and also base for Thomas Cook Airlines Scandinavia and Norwegian. 

The maximum capacity of the airport is 83 loadings per hour and there are room for up til 108 airplanes. 

Scenery links:
FS9 scenery: Download
FSX/P3D scenery: Download
XP scenery:
Elevation: 17 ft.
Transition altitude: 5000 ft.
MSA: 10800 ft.
Latitude: 55.617917
Longitude: 12.655972
EKCH Charts
EKCH Notams
EKCH Online stations

Runways

Number Course Length Elevation Lat Lon ILS ILS freq ILS FAC GP
04L 38° 9843ft / 3000 m 13ft 55.5922 12.603536 110.5 38° 3.0°
04R 38° 10827ft / 3300 m 12ft 55.6031 12.633047 109.3 38° 3.0°
12 120° 7759ft / 2365 m 13ft 55.62415 12.639117 109.9 120° 3.0°
22L 218° 10827ft / 3300 m 8ft 55.625411 12.667581 109.5 218° 3.0°
22R 218° 9843ft / 3000 m 14ft 55.612478 12.634892 110.9 218° 3.0°
30 300° 7759ft / 2365 m 8ft 55.613853 12.666947 108.9 300° 3.0°